Time;durP1;ratioP1;P1;durP2;ratioP2;P2;SDS_P1;SDS_P2;PMS_P1;PMS_P2;Temp;Humidity;BMP_temperature;BMP_pressure;BME280_temperature;BME280_humidity;BME280_pressure;Samples;Min_cycle;Max_cycle;Signal;HPM_P1;HPM_P2
2021/03/19 00:00:25;;;;;;;91.85;55.33;;;17.40;46.10;;;;;;5055188;28;20484;-62
2021/03/19 00:02:53;;;;;;;85.50;52.92;;;17.40;46.20;;;;;;5055021;28;20033;-60
2021/03/19 00:05:20;;;;;;;88.97;52.08;;;17.40;46.00;;;;;;5049339;28;20120;-61
2021/03/19 00:07:50;;;;;;;84.93;51.45;;;17.40;46.30;;;;;;5035036;28;20025;-61
2021/03/19 00:10:20;;;;;;;81.53;49.90;;;17.30;46.60;;;;;;5035258;28;20033;-65
2021/03/19 00:12:46;;;;;;;84.43;48.57;;;17.40;46.00;;;;;;5034984;28;20759;-62
2021/03/19 00:15:13;;;;;;;85.10;47.92;;;17.30;46.30;;;;;;5034916;28;20029;-68
2021/03/19 00:17:40;;;;;;;85.25;46.13;;;17.40;46.10;;;;;;5034832;28;20108;-61
2021/03/19 00:20:08;;;;;;;76.82;46.72;;;17.40;45.70;;;;;;5034989;28;20112;-61
2021/03/19 00:22:35;;;;;;;74.13;46.45;;;17.40;45.70;;;;;;5034726;28;20041;-61
2021/03/19 00:25:01;;;;;;;73.82;45.40;;;17.40;45.60;;;;;;5034832;28;20469;-64
2021/03/19 00:27:27;;;;;;;73.03;44.35;;;17.40;45.80;;;;;;5034790;28;20079;-64
2021/03/19 00:29:52;;;;;;;75.57;43.78;;;17.40;45.90;;;;;;5033510;28;20025;-64
2021/03/19 00:32:18;;;;;;;75.53;41.80;;;17.40;46.00;;;;;;5034746;28;20033;-64
2021/03/19 00:34:44;;;;;;;75.40;43.25;;;17.40;46.00;;;;;;5034969;28;20025;-64
2021/03/19 00:37:09;;;;;;;66.25;39.35;;;17.30;46.00;;;;;;5034597;28;20032;-64
2021/03/19 00:39:35;;;;;;;70.22;40.78;;;17.30;45.90;;;;;;5034589;28;20552;-64
2021/03/19 00:42:02;;;;;;;72.18;41.92;;;17.30;46.00;;;;;;5034460;28;20098;-64
2021/03/19 00:44:27;;;;;;;64.00;38.90;;;17.20;46.20;;;;;;5034248;28;20030;-64
2021/03/19 00:46:53;;;;;;;69.10;40.47;;;17.20;46.10;;;;;;5034584;28;20029;-64
2021/03/19 00:49:19;;;;;;;69.20;40.38;;;17.20;46.00;;;;;;5034820;28;20037;-64
2021/03/19 00:51:44;;;;;;;61.83;37.10;;;17.10;46.10;;;;;;5034461;28;20028;-64
2021/03/19 00:54:11;;;;;;;63.00;39.95;;;17.10;46.20;;;;;;5034551;28;20077;-64
2021/03/19 00:56:37;;;;;;;62.25;37.15;;;17.10;46.20;;;;;;5034311;28;20107;-64
2021/03/19 00:59:07;;;;;;;58.13;35.42;;;17.20;46.40;;;;;;5034139;28;20025;-64
2021/03/19 01:01:34;;;;;;;60.90;34.17;;;17.20;46.30;;;;;;5034558;28;20033;-64
2021/03/19 01:04:00;;;;;;;54.47;35.05;;;17.20;46.20;;;;;;5034203;28;20053;-64
2021/03/19 01:06:26;;;;;;;55.25;32.42;;;17.30;46.00;;;;;;5033871;28;20448;-63
2021/03/19 01:08:52;;;;;;;56.75;33.70;;;17.40;46.00;;;;;;5034037;28;20104;-64
2021/03/19 01:11:17;;;;;;;53.42;32.17;;;17.50;45.80;;;;;;5034303;28;20457;-64
2021/03/19 01:13:43;;;;;;;55.05;33.05;;;17.60;45.60;;;;;;5032571;28;20025;-64
2021/03/19 01:16:08;;;;;;;47.97;30.23;;;17.80;45.30;;;;;;5034325;28;20113;-64
2021/03/19 01:18:34;;;;;;;50.55;31.10;;;17.90;44.90;;;;;;5034086;28;20026;-64
2021/03/19 01:21:00;;;;;;;52.88;31.13;;;18.00;45.00;;;;;;5033786;28;20033;-64
2021/03/19 01:23:26;;;;;;;51.70;31.40;;;18.20;44.60;;;;;;5033791;28;20398;-64
2021/03/19 01:25:51;;;;;;;49.75;29.92;;;18.30;44.20;;;;;;5034123;28;20025;-64
2021/03/19 01:28:17;;;;;;;46.45;29.63;;;18.40;43.90;;;;;;5033290;28;20100;-64
2021/03/19 01:30:44;;;;;;;41.13;26.02;;;18.50;43.80;;;;;;5034102;28;20025;-64
2021/03/19 01:33:10;;;;;;;48.97;27.90;;;18.50;43.80;;;;;;5033643;28;20029;-64
2021/03/19 01:35:38;;;;;;;46.53;28.20;;;18.40;44.10;;;;;;5033751;28;20159;-64
2021/03/19 01:38:05;;;;;;;45.33;26.50;;;18.30;44.20;;;;;;5033387;28;20036;-64
2021/03/19 01:40:57;;;;;;;44.85;27.02;;;18.20;44.40;;;;;;5033465;28;20034;-64
2021/03/19 01:43:35;;;;;;;45.38;26.85;;;18.20;44.50;;;;;;5031540;28;20477;-64
2021/03/19 01:46:38;;;;;;;42.10;25.95;;;18.20;44.50;;;;;;5033575;28;20030;-64
2021/03/19 01:49:41;;;;;;;42.40;25.08;;;18.20;44.60;;;;;;5033578;28;20064;-64
2021/03/19 01:52:44;;;;;;;39.97;24.63;;;18.10;44.80;;;;;;5033615;28;20029;-64
2021/03/19 01:55:47;;;;;;;38.25;24.73;;;18.00;44.90;;;;;;5033697;28;20120;-64
2021/03/19 01:58:50;;;;;;;36.67;23.00;;;18.00;45.00;;;;;;5033277;28;20084;-64
2021/03/19 02:01:53;;;;;;;41.33;24.20;;;18.00;45.10;;;;;;5033211;28;20120;-64
2021/03/19 02:04:56;;;;;;;40.33;24.10;;;17.90;45.20;;;;;;5033207;28;20474;-64
2021/03/19 02:07:59;;;;;;;38.95;22.45;;;17.90;45.30;;;;;;5033485;28;20112;-64
2021/03/19 02:11:02;;;;;;;36.42;22.27;;;17.90;45.30;;;;;;5033501;28;20529;-64
2021/03/19 02:14:04;;;;;;;37.10;21.38;;;17.80;45.40;;;;;;5033362;28;20458;-64
2021/03/19 02:17:07;;;;;;;31.65;20.42;;;17.80;45.50;;;;;;5033309;28;20490;-64
2021/03/19 02:20:10;;;;;;;35.97;20.80;;;17.80;45.70;;;;;;5033334;28;20048;-64
2021/03/19 02:23:13;;;;;;;32.65;19.50;;;17.70;45.70;;;;;;5033197;28;20060;-64
2021/03/19 02:26:16;;;;;;;33.67;20.42;;;17.80;45.90;;;;;;5033331;28;20025;-64
2021/03/19 02:29:19;;;;;;;33.38;20.33;;;17.70;45.80;;;;;;5033145;28;20563;-64
2021/03/19 02:31:55;;;;;;;31.63;19.27;;;17.80;45.70;;;;;;5033313;28;20107;-64
2021/03/19 02:34:41;;;;;;;33.72;19.73;;;17.80;45.60;;;;;;5033055;28;20064;-64
2021/03/19 02:37:09;;;;;;;30.85;19.45;;;17.80;45.60;;;;;;5032580;28;20044;-64
2021/03/19 02:39:36;;;;;;;26.85;17.30;;;17.80;45.90;;;;;;5034009;28;20444;-64
2021/03/19 02:42:02;;;;;;;28.08;18.40;;;17.80;45.80;;;;;;5036737;28;20045;-64
2021/03/19 02:44:29;;;;;;;30.77;18.42;;;17.80;45.60;;;;;;5036756;28;20034;-64
2021/03/19 02:46:54;;;;;;;28.05;18.20;;;17.80;45.80;;;;;;5036718;28;20021;-64
2021/03/19 02:49:20;;;;;;;28.73;17.80;;;17.70;45.80;;;;;;5036546;28;20470;-64
2021/03/19 02:51:46;;;;;;;30.38;18.15;;;17.70;45.90;;;;;;5036849;28;20041;-64
2021/03/19 02:54:11;;;;;;;26.35;17.77;;;17.60;46.00;;;;;;5035261;28;20104;-64
2021/03/19 02:56:37;;;;;;;26.98;16.92;;;17.60;46.00;;;;;;5036584;28;20021;-64
2021/03/19 02:59:03;;;;;;;27.73;17.15;;;17.60;46.10;;;;;;5036500;28;20471;-64
2021/03/19 03:01:28;;;;;;;26.63;16.42;;;17.60;46.30;;;;;;5036414;28;20037;-64
2021/03/19 03:03:54;;;;;;;27.60;16.88;;;17.50;46.30;;;;;;5036671;28;20033;-64
2021/03/19 03:06:20;;;;;;;26.08;16.13;;;17.50;46.40;;;;;;5035170;28;20029;-64
2021/03/19 03:08:46;;;;;;;27.27;15.60;;;17.50;46.50;;;;;;5036182;28;20021;-64
2021/03/19 03:11:11;;;;;;;24.48;15.98;;;17.50;46.60;;;;;;5034836;28;20045;-64
2021/03/19 03:13:37;;;;;;;25.98;14.73;;;17.40;46.50;;;;;;5036239;28;20033;-64
2021/03/19 03:16:04;;;;;;;25.63;14.85;;;17.40;46.60;;;;;;5035908;28;20021;-63
2021/03/19 03:18:31;;;;;;;26.02;15.25;;;17.40;46.70;;;;;;5036115;28;20478;-64
2021/03/19 03:20:59;;;;;;;26.80;15.48;;;17.40;46.80;;;;;;5035980;28;20034;-64
2021/03/19 03:23:26;;;;;;;25.13;14.52;;;17.40;46.80;;;;;;5035972;28;20040;-64
2021/03/19 03:25:52;;;;;;;21.88;14.07;;;17.30;46.90;;;;;;5036045;28;20034;-64
2021/03/19 03:28:18;;;;;;;21.00;13.88;;;17.30;46.90;;;;;;5035916;28;20480;-63
2021/03/19 03:30:51;;;;;;;24.92;13.73;;;17.40;46.80;;;;;;5035803;28;20026;-64
2021/03/19 03:33:17;;;;;;;23.83;14.13;;;17.30;46.90;;;;;;5036051;28;20034;-64
2021/03/19 03:35:43;;;;;;;19.95;13.38;;;17.30;46.80;;;;;;5035887;28;20024;-64
2021/03/19 03:38:16;;;;;;;21.95;13.95;;;17.30;47.00;;;;;;5035764;28;20492;-64
2021/03/19 03:40:44;;;;;;;22.63;13.18;;;17.30;47.00;;;;;;5035660;28;20358;-64
2021/03/19 03:43:13;;;;;;;20.42;13.13;;;17.30;47.00;;;;;;5034306;28;20068;-64
2021/03/19 03:45:39;;;;;;;19.30;12.73;;;17.40;47.10;;;;;;5035646;28;20525;-64
2021/03/19 03:48:06;;;;;;;19.15;11.93;;;17.40;47.10;;;;;;5035755;28;20021;-64
2021/03/19 03:50:33;;;;;;;19.33;11.65;;;17.40;46.80;;;;;;5035094;28;20037;-64
2021/03/19 03:52:58;;;;;;;19.52;12.05;;;17.40;46.80;;;;;;5035273;28;20042;-64
2021/03/19 03:55:24;;;;;;;21.85;12.10;;;17.30;46.90;;;;;;5035208;28;20432;-64
2021/03/19 03:57:50;;;;;;;22.13;12.38;;;17.30;46.90;;;;;;5035372;28;20026;-64
2021/03/19 04:00:21;;;;;;;17.02;11.27;;;17.30;47.10;;;;;;5035356;28;20037;-64
2021/03/19 04:02:47;;;;;;;21.33;11.70;;;17.40;47.10;;;;;;5035434;28;20037;-64
2021/03/19 04:05:20;;;;;;;18.00;11.40;;;17.40;46.90;;;;;;5035281;28;20025;-64
2021/03/19 04:07:46;;;;;;;17.98;10.65;;;17.60;46.90;;;;;;5035231;28;20099;-64
2021/03/19 04:10:12;;;;;;;16.90;10.77;;;17.70;46.50;;;;;;5034967;28;20072;-64
2021/03/19 04:12:38;;;;;;;16.70;10.63;;;17.80;46.30;;;;;;5035337;28;20473;-64
2021/03/19 04:15:05;;;;;;;17.58;11.35;;;18.00;46.00;;;;;;5034839;28;20132;-64
2021/03/19 04:17:33;;;;;;;17.63;10.30;;;18.00;45.90;;;;;;5034756;28;20038;-64
2021/03/19 04:19:59;;;;;;;21.70;11.13;;;18.00;45.90;;;;;;5034731;28;20044;-64
2021/03/19 04:22:26;;;;;;;15.32;9.43;;;18.10;45.90;;;;;;5034765;28;20033;-64
2021/03/19 04:24:54;;;;;;;16.48;9.80;;;18.00;45.80;;;;;;5034913;28;20064;-64
2021/03/19 04:27:23;;;;;;;14.48;9.77;;;18.10;45.80;;;;;;5034742;28;20049;-64
2021/03/19 04:29:49;;;;;;;17.17;10.23;;;18.10;45.80;;;;;;5034596;28;20026;-64
2021/03/19 04:32:15;;;;;;;13.55;9.02;;;18.10;46.40;;;;;;5034742;28;20033;-64
2021/03/19 04:34:41;;;;;;;18.00;9.40;;;18.10;45.80;;;;;;5034496;28;20025;-64
2021/03/19 04:37:08;;;;;;;14.02;8.85;;;18.10;45.90;;;;;;5034559;28;20388;-64
2021/03/19 04:39:39;;;;;;;16.33;9.25;;;18.10;45.80;;;;;;5034796;28;20033;-64
2021/03/19 04:42:07;;;;;;;14.93;8.55;;;18.20;45.60;;;;;;5034413;28;20474;-64
2021/03/19 04:44:36;;;;;;;14.30;8.63;;;18.30;45.40;;;;;;5034402;28;20104;-63
2021/03/19 04:47:02;;;;;;;13.52;8.27;;;18.30;45.30;;;;;;5034385;28;20033;-64
2021/03/19 04:49:28;;;;;;;14.48;8.30;;;18.40;45.30;;;;;;5034311;28;20030;-63
2021/03/19 04:51:54;;;;;;;15.07;8.80;;;18.30;45.50;;;;;;5034098;28;20033;-64
2021/03/19 04:54:20;;;;;;;15.15;7.82;;;18.20;45.60;;;;;;5034405;28;20084;-63
2021/03/19 04:56:46;;;;;;;13.90;8.38;;;18.20;45.70;;;;;;5034295;28;20099;-64
2021/03/19 04:59:11;;;;;;;11.77;8.40;;;18.10;45.90;;;;;;5034136;28;20029;-64
2021/03/19 05:01:58;;;;;;;14.57;7.38;;;18.00;46.00;;;;;;5033507;28;20037;-63
2021/03/19 05:04:25;;;;;;;14.60;7.28;;;18.00;46.10;;;;;;5034353;28;20463;-63
2021/03/19 05:06:54;;;;;;;13.98;7.82;;;17.90;46.10;;;;;;5034167;28;20036;-63
2021/03/19 05:09:20;;;;;;;11.55;6.97;;;17.90;46.30;;;;;;5033926;28;20363;-63
2021/03/19 05:11:47;;;;;;;12.48;7.45;;;17.90;46.30;;;;;;5034143;28;20029;-63
2021/03/19 05:14:13;;;;;;;11.90;7.65;;;17.80;46.30;;;;;;5034224;28;20033;-63
2021/03/19 05:16:38;;;;;;;12.73;7.50;;;17.80;46.40;;;;;;5034457;28;20381;-63
2021/03/19 05:19:04;;;;;;;13.23;7.82;;;17.80;46.50;;;;;;5034511;28;20535;-63
2021/03/19 05:21:31;;;;;;;11.10;6.82;;;17.70;46.60;;;;;;5033862;28;20408;-63
2021/03/19 05:23:56;;;;;;;12.23;6.97;;;17.70;46.70;;;;;;5033965;28;20079;-63
2021/03/19 05:26:22;;;;;;;10.48;6.50;;;17.60;46.60;;;;;;5034226;28;20465;-63
2021/03/19 05:28:48;;;;;;;13.63;6.70;;;17.60;46.80;;;;;;5033818;28;20036;-63
2021/03/19 05:31:14;;;;;;;10.88;6.22;;;17.60;46.90;;;;;;5033576;28;20108;-63
2021/03/19 05:33:47;;;;;;;11.27;6.78;;;17.60;46.90;;;;;;5034046;28;20462;-63
2021/03/19 05:36:15;;;;;;;13.68;6.63;;;17.60;47.00;;;;;;5033829;28;20053;-63
2021/03/19 05:38:41;;;;;;;10.57;6.15;;;17.50;47.00;;;;;;5033774;28;20365;-63
2021/03/19 05:41:08;;;;;;;10.95;6.03;;;17.50;46.90;;;;;;5033704;28;20450;-63
2021/03/19 05:43:38;;;;;;;9.20;5.45;;;17.50;47.00;;;;;;5033338;28;20035;-63
2021/03/19 05:46:17;;;;;;;10.02;5.88;;;17.60;46.90;;;;;;5033726;28;20025;-63
2021/03/19 05:49:07;;;;;;;9.90;5.40;;;17.60;46.90;;;;;;5033641;28;20025;-63
2021/03/19 05:51:37;;;;;;;11.80;6.25;;;17.60;46.80;;;;;;5033504;28;20033;-63
2021/03/19 05:54:15;;;;;;;9.68;5.65;;;17.50;46.90;;;;;;5033654;28;20052;-63
2021/03/19 05:56:42;;;;;;;10.48;5.70;;;17.60;46.90;;;;;;5033570;28;20374;-63
2021/03/19 05:59:08;;;;;;;12.90;6.45;;;17.60;46.90;;;;;;5033465;28;20470;-63
2021/03/19 06:01:35;;;;;;;8.55;5.20;;;17.60;46.60;;;;;;5033439;28;20026;-63
2021/03/19 06:04:01;;;;;;;10.63;5.07;;;17.60;46.60;;;;;;5033872;28;20026;-63
2021/03/19 06:07:00;;;;;;;10.63;6.28;;;17.60;46.70;;;;;;5033433;28;20026;-63
2021/03/19 06:09:30;;;;;;;11.57;5.80;;;17.50;46.90;;;;;;5034018;28;20079;-63
2021/03/19 06:12:14;;;;;;;9.77;5.78;;;17.50;46.90;;;;;;5033550;28;20183;-63
2021/03/19 06:14:49;;;;;;;8.90;5.28;;;17.50;46.90;;;;;;5036262;28;20029;-63
2021/03/19 06:17:21;;;;;;;10.02;5.43;;;17.40;46.80;;;;;;5037122;28;20041;-64
2021/03/19 06:20:06;;;;;;;9.60;5.78;;;17.40;46.90;;;;;;5037113;28;20083;-63
2021/03/19 06:22:46;;;;;;;12.93;5.38;;;17.40;46.90;;;;;;5037058;28;20037;-63
2021/03/19 06:25:25;;;;;;;8.10;5.22;;;17.30;46.90;;;;;;5036855;28;20481;-63
2021/03/19 06:28:00;;;;;;;9.35;5.25;;;17.30;47.10;;;;;;5037061;28;20030;-63
2021/03/19 06:30:34;;;;;;;8.23;5.45;;;17.30;47.10;;;;;;5037285;28;20036;-63
2021/03/19 06:32:59;;;;;;;9.38;5.05;;;17.30;47.10;;;;;;5036904;28;20038;-63
2021/03/19 06:35:31;;;;;;;8.50;5.00;;;17.40;46.90;;;;;;5036894;28;20032;-63
2021/03/19 06:38:29;;;;;;;9.07;4.72;;;17.50;46.70;;;;;;5037238;28;20022;-65
2021/03/19 06:40:55;;;;;;;9.02;5.07;;;17.70;46.50;;;;;;5036838;28;20026;-62
2021/03/19 06:43:28;;;;;;;8.82;4.93;;;17.80;46.20;;;;;;5036777;28;20396;-63
2021/03/19 06:46:11;;;;;;;9.00;4.70;;;17.90;45.90;;;;;;5035273;28;20116;-65
2021/03/19 06:48:44;;;;;;;8.57;5.20;;;18.00;45.80;;;;;;5037106;28;20041;-64
2021/03/19 06:51:35;;;;;;;7.20;4.10;;;18.00;45.70;;;;;;5036577;28;20029;-62
2021/03/19 06:54:08;;;;;;;7.93;4.50;;;18.20;45.50;;;;;;5036138;28;20084;-63
2021/03/19 06:56:37;;;;;;;9.38;4.60;;;18.30;45.20;;;;;;5036528;28;20026;-62
2021/03/19 06:59:24;;;;;;;9.15;4.32;;;18.40;44.90;;;;;;5036700;28;20479;-62
2021/03/19 07:01:51;;;;;;;7.55;4.07;;;18.50;44.70;;;;;;5036406;28;20075;-62
2021/03/19 07:04:58;;;;;;;7.13;4.35;;;18.50;44.80;;;;;;5036232;28;20064;-64
2021/03/19 07:07:32;;;;;;;8.20;4.93;;;18.50;45.00;;;;;;4975368;28;20606;-63
2021/03/19 07:10:36;;;;;;;9.32;4.15;;;18.50;45.90;;;;;;4975350;28;20033;-65
2021/03/19 07:13:23;;;;;;;7.47;4.43;;;18.50;46.50;;;;;;5023017;28;20445;-63
2021/03/19 07:16:17;;;;;;;9.82;4.15;;;18.50;46.00;;;;;;5036568;28;20052;-63
2021/03/19 07:19:01;;;;;;;12.13;3.97;;;18.40;46.60;;;;;;5033632;28;20063;-64
2021/03/19 07:21:49;;;;;;;18.90;4.68;;;18.40;46.60;;;;;;5035444;28;20038;-60
2021/03/19 07:24:41;;;;;;;13.10;4.50;;;18.30;47.20;;;;;;5036218;28;20033;-62
2021/03/19 07:27:34;;;;;;;55.78;34.60;;;18.30;47.20;;;;;;5035682;28;20086;-62
2021/03/19 07:30:31;;;;;;;89.57;45.13;;;18.30;46.70;;;;;;5035950;28;20030;-61
2021/03/19 07:33:02;;;;;;;57.70;33.53;;;18.30;46.00;;;;;;5035602;28;20076;-61
2021/03/19 07:36:05;;;;;;;104.38;58.03;;;18.30;45.20;;;;;;5035432;28;20030;-62
2021/03/19 07:38:31;;;;;;;100.78;57.72;;;18.30;44.70;;;;;;5015774;28;20026;-63
2021/03/19 07:41:10;;;;;;;126.55;68.25;;;18.20;44.40;;;;;;5016026;28;20026;-62
2021/03/19 07:43:55;;;;;;;86.15;50.42;;;18.20;44.10;;;;;;5015960;28;20034;-63
2021/03/19 07:46:39;;;;;;;59.60;33.92;;;18.10;43.70;;;;;;5016291;28;20116;-67
2021/03/19 07:49:20;;;;;;;41.15;25.10;;;18.00;43.40;;;;;;5014627;28;20501;-64
2021/03/19 07:52:02;;;;;;;37.42;19.98;;;17.90;43.10;;;;;;5016214;28;20033;-62
2021/03/19 07:54:49;;;;;;;87.13;52.80;;;17.80;43.10;;;;;;5015495;28;20108;-61
2021/03/19 07:57:39;;;;;;;109.53;62.83;;;17.90;42.90;;;;;;5015511;28;20022;-61
2021/03/19 08:00:11;;;;;;;145.40;89.00;;;17.90;42.50;;;;;;5015866;28;20057;-61
2021/03/19 08:03:03;;;;;;;130.93;77.70;;;17.90;42.50;;;;;;5015440;28;20041;-62
2021/03/19 08:05:42;;;;;;;109.00;62.25;;;17.90;43.00;;;;;;5015040;28;20344;-62
2021/03/19 08:08:13;;;;;;;92.90;55.03;;;18.00;43.20;;;;;;5015908;28;20029;-62
2021/03/19 08:10:50;;;;;;;89.72;53.20;;;18.00;44.10;;;;;;5015502;28;20029;-62
2021/03/19 08:13:53;;;;;;;84.22;50.03;;;18.00;43.50;;;;;;5015394;28;20037;-62
2021/03/19 08:16:37;;;;;;;74.50;45.63;;;18.00;44.00;;;;;;5015033;28;20034;-62
2021/03/19 08:19:20;;;;;;;70.53;42.38;;;17.90;44.30;;;;;;5024827;28;20436;-62
2021/03/19 08:21:54;;;;;;;65.28;36.53;;;17.80;44.40;;;;;;5055163;28;20044;-62
2021/03/19 08:24:25;;;;;;;59.83;34.63;;;17.70;44.40;;;;;;5054942;28;20471;-62
2021/03/19 08:27:02;;;;;;;62.83;33.55;;;17.70;44.60;;;;;;5053412;28;20029;-64
2021/03/19 08:29:46;;;;;;;58.30;32.58;;;17.60;44.80;;;;;;5054066;28;20085;-63
2021/03/19 08:32:33;;;;;;;56.22;32.35;;;17.60;45.00;;;;;;5049632;28;20037;-63
2021/03/19 08:35:08;;;;;;;53.28;27.77;;;17.60;45.30;;;;;;5032568;28;20029;-64
2021/03/19 08:38:04;;;;;;;48.38;27.17;;;17.60;45.50;;;;;;5032556;28;20033;-62
2021/03/19 08:40:35;;;;;;;46.83;24.95;;;17.60;45.30;;;;;;5034117;28;20040;-62
2021/03/19 08:43:04;;;;;;;42.95;23.85;;;17.60;45.00;;;;;;5034761;28;20080;-61
2021/03/19 08:45:31;;;;;;;41.47;22.30;;;17.60;45.00;;;;;;5033973;28;20026;-62
2021/03/19 08:47:59;;;;;;;35.55;19.33;;;17.50;45.10;;;;;;5033759;28;20057;-62
2021/03/19 08:50:38;;;;;;;39.75;21.20;;;17.50;45.20;;;;;;5034459;28;20087;-61
2021/03/19 08:53:24;;;;;;;39.67;21.17;;;17.50;45.20;;;;;;5034598;28;20064;-62
2021/03/19 08:56:11;;;;;;;40.85;21.08;;;17.50;45.20;;;;;;5034219;28;20029;-62
2021/03/19 08:58:53;;;;;;;32.60;19.67;;;17.50;45.50;;;;;;5033907;28;20036;-62
2021/03/19 09:01:54;;;;;;;34.28;17.67;;;17.40;45.40;;;;;;5034714;28;20032;-62
2021/03/19 09:04:52;;;;;;;29.55;17.02;;;17.40;45.40;;;;;;5034025;28;20041;-62
2021/03/19 09:07:32;;;;;;;34.17;16.73;;;17.50;45.50;;;;;;5031801;28;20436;-62
2021/03/19 09:10:18;;;;;;;29.83;15.63;;;17.50;45.60;;;;;;5033151;28;20025;-60
2021/03/19 09:12:56;;;;;;;24.88;15.88;;;17.50;45.50;;;;;;5022922;28;20076;-60
2021/03/19 09:15:22;;;;;;;31.45;15.65;;;17.60;45.60;;;;;;5033885;28;20061;-61
2021/03/19 09:17:58;;;;;;;31.20;16.13;;;17.60;45.50;;;;;;5032406;28;20069;-61
2021/03/19 09:20:39;;;;;;;27.63;14.70;;;17.60;45.50;;;;;;5034297;28;20030;-61
2021/03/19 09:23:11;;;;;;;26.25;13.93;;;17.60;45.50;;;;;;5033570;28;20542;-61
2021/03/19 09:26:03;;;;;;;25.80;14.88;;;17.60;45.60;;;;;;5033218;28;20385;-62
2021/03/19 09:28:37;;;;;;;23.73;14.43;;;17.60;45.70;;;;;;5017836;28;20035;-61
2021/03/19 09:31:06;;;;;;;33.03;14.30;;;17.80;45.70;;;;;;5033726;28;20060;-61
2021/03/19 09:33:44;;;;;;;29.95;14.55;;;17.80;45.80;;;;;;5032938;28;20094;-64
2021/03/19 09:36:47;;;;;;;30.38;14.10;;;18.00;45.50;;;;;;5033557;28;20458;-61
2021/03/19 09:39:51;;;;;;;28.17;13.25;;;18.10;45.10;;;;;;5033040;28;20029;-61
2021/03/19 09:42:20;;;;;;;30.33;12.80;;;18.20;44.90;;;;;;5033380;28;20159;-61
2021/03/19 09:45:00;;;;;;;28.85;14.40;;;18.30;44.70;;;;;;5032936;28;20061;-61
2021/03/19 09:47:33;;;;;;;27.20;12.23;;;18.40;44.60;;;;;;5032816;28;20159;-62
2021/03/19 09:50:04;;;;;;;24.20;13.10;;;18.40;44.70;;;;;;5039940;28;20108;-61
2021/03/19 09:52:30;;;;;;;22.77;12.07;;;18.40;44.60;;;;;;5039956;28;20033;-61
2021/03/19 09:54:56;;;;;;;29.75;12.15;;;18.40;44.60;;;;;;5039471;28;20030;-63
2021/03/19 09:57:21;;;;;;;21.27;11.40;;;18.30;44.60;;;;;;5040407;28;20040;-62
2021/03/19 10:00:11;;;;;;;26.15;11.63;;;18.30;44.70;;;;;;5040469;28;20529;-61
2021/03/19 10:02:40;;;;;;;21.42;11.23;;;18.30;44.70;;;;;;5039504;28;20033;-61
2021/03/19 10:05:11;;;;;;;21.90;12.63;;;18.30;44.70;;;;;;5039820;28;20477;-61
2021/03/19 10:07:42;;;;;;;21.42;11.27;;;18.20;45.20;;;;;;5038514;28;20382;-61
2021/03/19 10:10:38;;;;;;;22.10;11.20;;;18.30;44.90;;;;;;5021518;28;20057;-61
2021/03/19 10:13:15;;;;;;;24.73;10.68;;;18.40;44.60;;;;;;5019794;28;20045;-61
2021/03/19 10:15:41;;;;;;;20.13;10.90;;;18.50;44.50;;;;;;5046205;28;20032;-61
2021/03/19 10:18:08;;;;;;;22.00;10.88;;;18.60;44.20;;;;;;5059955;28;20033;-61
2021/03/19 10:20:42;;;;;;;21.17;10.77;;;18.60;44.00;;;;;;5042307;28;20026;-60
2021/03/19 10:23:08;;;;;;;14.73;8.18;;;18.60;43.40;;;;;;5039488;28;20041;-62
2021/03/19 10:25:42;;;;;;;16.25;8.82;;;18.50;42.40;;;;;;5040017;28;20370;-59
2021/03/19 10:28:29;;;;;;;14.95;9.25;;;18.40;40.90;;;;;;5040159;28;20446;-60
2021/03/19 10:31:04;;;;;;;49.88;32.97;;;18.30;40.50;;;;;;5039334;28;20084;-61
2021/03/19 10:33:59;;;;;;;69.28;41.75;;;18.20;40.30;;;;;;5039037;28;20033;-61
2021/03/19 10:36:35;;;;;;;93.45;51.33;;;18.10;40.40;;;;;;5037263;28;20044;-60
2021/03/19 10:39:12;;;;;;;92.68;52.45;;;18.00;40.40;;;;;;5038895;28;20164;-60
2021/03/19 10:41:52;;;;;;;84.40;51.33;;;18.00;40.30;;;;;;5039473;28;20426;-61
2021/03/19 10:44:27;;;;;;;76.15;44.05;;;18.00;40.10;;;;;;5039367;28;20473;-62
2021/03/19 10:47:16;;;;;;;60.10;35.10;;;17.90;39.90;;;;;;5039037;28;20033;-65
2021/03/19 10:50:02;;;;;;;55.53;31.67;;;17.80;39.60;;;;;;5039061;28;20378;-58
2021/03/19 10:52:30;;;;;;;45.85;28.42;;;17.80;39.70;;;;;;5034353;28;20087;-60
2021/03/19 10:55:05;;;;;;;49.60;27.83;;;17.80;40.40;;;;;;5037430;28;20041;-61
2021/03/19 10:57:36;;;;;;;49.42;28.83;;;17.80;40.90;;;;;;5038361;28;20026;-60
2021/03/19 11:00:30;;;;;;;52.88;28.92;;;17.90;41.40;;;;;;5036399;28;20034;-61
2021/03/19 11:02:58;;;;;;;50.15;28.45;;;17.80;41.90;;;;;;5036035;28;20025;-60
2021/03/19 11:05:24;;;;;;;48.95;28.17;;;17.80;42.20;;;;;;5034442;28;20442;-62
2021/03/19 11:07:49;;;;;;;46.97;27.52;;;17.80;42.60;;;;;;5050247;28;20108;-63
2021/03/19 11:10:24;;;;;;;45.78;26.52;;;17.80;42.90;;;;;;5034936;28;20096;-63
2021/03/19 11:13:09;;;;;;;47.15;24.67;;;17.80;43.10;;;;;;5036044;28;20039;-61
2021/03/19 11:15:34;;;;;;;47.08;23.42;;;17.80;43.60;;;;;;5035498;28;20072;-63
2021/03/19 11:18:38;;;;;;;45.50;24.83;;;17.90;44.00;;;;;;5035669;28;20438;-63
2021/03/19 11:21:07;;;;;;;39.92;23.30;;;17.90;43.80;;;;;;5026685;28;20125;-61
2021/03/19 11:23:41;;;;;;;37.00;22.27;;;18.00;44.00;;;;;;5035156;28;20065;-62
2021/03/19 11:26:20;;;;;;;39.20;24.17;;;18.00;43.90;;;;;;5031477;28;20034;-62
2021/03/19 11:28:47;;;;;;;42.78;21.50;;;18.00;44.40;;;;;;5035139;28;20076;-62
2021/03/19 11:31:16;;;;;;;110.70;68.15;;;18.00;44.10;;;;;;5031124;28;20108;-61
2021/03/19 11:34:01;;;;;;;97.95;62.22;;;18.00;43.80;;;;;;5032760;28;20847;-62
2021/03/19 11:36:49;;;;;;;89.13;56.85;;;18.00;43.60;;;;;;5016898;28;20045;-61
2021/03/19 11:39:31;;;;;;;94.35;57.53;;;18.00;43.50;;;;;;5029915;28;20025;-61
2021/03/19 11:41:57;;;;;;;92.25;59.40;;;17.90;43.60;;;;;;5035585;28;20036;-61
2021/03/19 11:44:23;;;;;;;123.18;73.70;;;17.80;43.60;;;;;;5032596;28;20017;-63
2021/03/19 11:46:48;;;;;;;125.82;74.97;;;17.80;43.60;;;;;;5034956;28;20141;-62
2021/03/19 11:49:14;;;;;;;135.40;76.35;;;17.70;43.80;;;;;;5035192;28;20026;-62
2021/03/19 11:51:40;;;;;;;129.77;76.82;;;17.70;43.90;;;;;;5035346;28;20033;-63
2021/03/19 11:54:09;;;;;;;115.55;67.25;;;17.60;44.10;;;;;;5034777;28;20053;-63
2021/03/19 11:56:35;;;;;;;110.63;65.28;;;17.60;43.50;;;;;;5035180;28;20021;-62
2021/03/19 11:59:01;;;;;;;87.82;51.65;;;17.40;44.30;;;;;;5035239;28;20458;-62
2021/03/19 12:01:31;;;;;;;85.32;50.72;;;17.40;43.50;;;;;;5034651;28;20091;-63
2021/03/19 12:03:58;;;;;;;83.07;50.20;;;17.40;43.40;;;;;;5035056;28;20037;-63
2021/03/19 12:06:27;;;;;;;85.63;52.70;;;17.40;43.60;;;;;;5034830;28;20485;-64
2021/03/19 12:08:52;;;;;;;85.07;49.13;;;17.40;43.90;;;;;;5034194;28;20544;-63
2021/03/19 12:11:35;;;;;;;84.53;50.15;;;17.40;44.20;;;;;;5034678;28;20097;-63
2021/03/19 12:14:03;;;;;;;86.20;48.08;;;17.40;44.40;;;;;;5034298;28;20099;-65
2021/03/19 12:16:29;;;;;;;76.30;46.33;;;17.40;44.60;;;;;;5034378;28;20080;-64
2021/03/19 12:18:56;;;;;;;84.13;46.72;;;17.50;44.60;;;;;;5034731;28;20021;-64
2021/03/19 12:21:22;;;;;;;74.07;43.97;;;17.60;44.70;;;;;;5034151;28;20478;-65
2021/03/19 12:23:48;;;;;;;77.07;43.97;;;17.80;44.30;;;;;;5034345;28;20068;-63
2021/03/19 12:26:13;;;;;;;72.22;41.63;;;18.10;44.20;;;;;;5034798;28;20446;-64
2021/03/19 12:28:39;;;;;;;70.18;41.30;;;18.30;44.30;;;;;;5034255;28;20380;-64
2021/03/19 12:31:05;;;;;;;64.47;40.67;;;18.40;44.30;;;;;;5034212;28;20021;-63
2021/03/19 12:33:36;;;;;;;68.18;38.15;;;18.50;44.30;;;;;;5034007;28;20025;-64
2021/03/19 12:36:05;;;;;;;65.80;37.85;;;18.50;44.40;;;;;;5033108;28;20046;-64
2021/03/19 12:38:30;;;;;;;64.07;37.05;;;18.50;44.40;;;;;;5033642;28;20075;-63
2021/03/19 12:40:58;;;;;;;63.53;35.67;;;18.50;44.50;;;;;;5034019;28;20037;-66
2021/03/19 12:43:24;;;;;;;148.45;77.55;;;18.50;44.80;;;;;;5039087;28;20535;-66
2021/03/19 12:45:50;;;;;;;136.50;76.55;;;18.50;44.00;;;;;;5027551;28;20041;-65
2021/03/19 12:48:16;;;;;;;133.05;74.10;;;18.40;43.00;;;;;;5025438;28;20037;-64
2021/03/19 12:50:42;;;;;;;134.43;78.68;;;18.40;42.10;;;;;;5026695;28;20022;-66
2021/03/19 12:53:12;;;;;;;120.00;69.60;;;18.30;41.70;;;;;;5023319;28;20033;-64
2021/03/19 12:55:38;;;;;;;;;;;18.20;41.30;;;;;;5026993;28;20030;-62
2021/03/19 12:58:04;;;;;;;94.75;53.53;;;18.20;41.70;;;;;;5031533;28;19916;-61
2021/03/19 13:00:33;;;;;;;192.20;112.97;;;18.20;42.40;;;;;;5053276;28;20033;-61
2021/03/19 13:02:59;;;;;;;488.60;306.30;;;18.20;43.40;;;;;;5053715;28;20039;-61
2021/03/19 13:05:27;;;;;;;245.18;140.02;;;18.20;44.20;;;;;;5054048;28;20060;-63